createdAt,value
2018-01-19T00:00:04.728Z,0
2018-01-19T00:05:02.886Z,0
2018-01-19T00:10:02.997Z,0
2018-01-19T00:15:03.390Z,0
2018-01-19T00:20:02.927Z,0
2018-01-19T00:25:02.492Z,0
2018-01-19T00:30:02.909Z,0
2018-01-19T00:35:03.378Z,0
2018-01-19T00:40:02.892Z,0
2018-01-19T00:45:02.460Z,0
2018-01-19T00:50:02.867Z,0
2018-01-19T00:55:03.447Z,0
2018-01-19T01:00:02.951Z,0
2018-01-19T01:05:03.357Z,0
2018-01-19T01:10:02.906Z,0
2018-01-19T01:15:03.390Z,0
2018-01-19T01:20:02.965Z,0
2018-01-19T01:25:02.560Z,0
2018-01-19T01:30:03.133Z,0
2018-01-19T01:35:02.773Z,0
2018-01-19T01:40:03.413Z,0
2018-01-19T01:45:02.998Z,0
2018-01-19T01:50:02.532Z,0
2018-01-19T01:55:03.129Z,0
2018-01-19T02:00:02.564Z,0
2018-01-19T02:05:03.138Z,0
2018-01-19T02:10:02.646Z,0
2018-01-19T02:15:03.196Z,0
2018-01-19T02:20:02.832Z,0
2018-01-19T02:25:03.303Z,0
2018-01-19T02:30:02.875Z,0
2018-01-19T02:35:02.507Z,0
2018-01-19T02:40:03.195Z,0
2018-01-19T02:45:02.661Z,0
2018-01-19T02:50:03.262Z,0
2018-01-19T02:55:02.645Z,0
2018-01-19T03:00:03.283Z,0
2018-01-19T03:05:02.886Z,0
2018-01-19T03:10:02.561Z,0
2018-01-19T03:15:02.990Z,0
2018-01-19T03:20:02.624Z,0
2018-01-19T03:25:03.082Z,0
2018-01-19T03:30:02.524Z,0
2018-01-19T03:35:02.970Z,0
2018-01-19T03:40:02.756Z,0
2018-01-19T03:45:03.189Z,0
2018-01-19T03:50:02.667Z,0
2018-01-19T03:55:03.117Z,0
2018-01-19T04:00:02.870Z,0
2018-01-19T04:05:03.398Z,0
2018-01-19T04:10:03.045Z,0
2018-01-19T04:15:02.656Z,0
2018-01-19T04:20:03.302Z,0
2018-01-19T04:25:02.873Z,0
2018-01-19T04:30:03.345Z,0
2018-01-19T04:35:02.824Z,0
2018-01-19T04:40:02.467Z,0
2018-01-19T04:45:02.968Z,0
2018-01-19T04:50:02.625Z,0
2018-01-19T04:55:03.210Z,0
2018-01-19T05:00:02.839Z,0
2018-01-19T05:05:03.320Z,0
2018-01-19T05:10:02.860Z,0
2018-01-19T05:15:03.455Z,0
2018-01-19T05:20:02.977Z,0
2018-01-19T05:25:02.591Z,0
2018-01-19T05:30:03.291Z,0
2018-01-19T05:35:02.825Z,0
2018-01-19T05:40:03.344Z,0
2018-01-19T05:45:02.888Z,0
2018-01-19T05:50:02.485Z,0
2018-01-19T05:55:03.065Z,0
2018-01-19T06:00:02.766Z,0
2018-01-19T06:05:03.208Z,0
2018-01-19T06:10:02.874Z,0
2018-01-19T06:15:03.299Z,0
2018-01-19T06:20:02.752Z,0
2018-01-19T06:25:03.195Z,0
2018-01-19T06:30:02.751Z,0
2018-01-19T06:35:03.183Z,0
2018-01-19T06:40:02.713Z,0
2018-01-19T06:45:03.194Z,0
2018-01-19T06:50:02.719Z,0
2018-01-19T06:55:03.140Z,0
2018-01-19T07:00:02.839Z,1
2018-01-19T07:05:02.490Z,3
2018-01-19T07:10:03.142Z,8
2018-01-19T07:15:02.631Z,17
2018-01-19T07:20:03.185Z,24
2018-01-19T07:25:02.584Z,34
2018-01-19T07:30:03.077Z,53
2018-01-19T07:35:02.730Z,62
2018-01-19T07:40:03.443Z,70
2018-01-19T07:45:02.917Z,93
2018-01-19T07:50:02.497Z,122
2018-01-19T07:55:03.054Z,188
2018-01-19T08:00:02.653Z,581
2018-01-19T08:05:03.333Z,713
2018-01-19T08:10:02.950Z,608
2018-01-19T08:15:02.545Z,925
2018-01-19T08:20:03.236Z,1000
2018-01-19T08:25:02.858Z,1000
2018-01-19T08:30:02.485Z,1000
2018-01-19T08:35:03.102Z,1000
2018-01-19T08:40:02.756Z,1000
2018-01-19T08:45:03.259Z,1000
2018-01-19T08:50:02.844Z,2000
2018-01-19T08:55:03.364Z,2000
2018-01-19T09:00:02.825Z,2000
2018-01-19T09:05:03.456Z,2000
2018-01-19T09:10:02.980Z,2000
2018-01-19T09:15:03.396Z,2000
2018-01-19T09:20:03.134Z,1000
2018-01-19T09:25:02.682Z,1000
2018-01-19T09:30:03.312Z,1000
2018-01-19T09:35:02.824Z,2000
2018-01-19T09:40:02.454Z,7000
2018-01-19T09:45:02.993Z,2000
2018-01-19T09:50:02.475Z,3000
2018-01-19T09:55:03.110Z,2000
2018-01-19T10:00:02.660Z,2000
2018-01-19T10:05:03.240Z,3000
2018-01-19T10:10:02.727Z,25000
2018-01-19T10:15:03.348Z,25000
2018-01-19T10:20:02.928Z,25000
2018-01-19T10:25:02.554Z,5000
2018-01-19T10:30:02.973Z,6000
2018-01-19T10:35:02.907Z,4000
2018-01-19T10:40:02.576Z,3000
2018-01-19T10:45:03.190Z,3000
2018-01-19T10:50:02.690Z,3000
2018-01-19T10:55:03.173Z,3000
2018-01-19T11:00:02.622Z,4000
2018-01-19T11:05:03.177Z,4000
2018-01-19T11:10:02.765Z,3000
2018-01-19T11:15:03.268Z,2000
2018-01-19T11:20:02.923Z,6000
2018-01-19T11:25:03.556Z,19000
2018-01-19T11:30:03.215Z,10000
2018-01-19T11:35:02.824Z,6000
2018-01-19T11:40:03.338Z,3000
2018-01-19T11:45:02.811Z,18000
2018-01-19T11:50:03.389Z,2000
2018-01-19T11:55:02.868Z,4000
2018-01-19T12:00:03.291Z,3000
2018-01-19T12:05:02.906Z,4000
2018-01-19T12:10:02.602Z,5000
2018-01-19T12:15:03.067Z,3000
2018-01-19T12:20:02.738Z,1000
2018-01-19T12:25:03.231Z,2000
2018-01-19T12:30:02.664Z,2000
2018-01-19T12:35:03.294Z,6000
2018-01-19T12:40:02.798Z,6000
2018-01-19T12:45:02.520Z,4000
2018-01-19T12:50:03.169Z,3000
2018-01-19T12:55:02.661Z,3000
2018-01-19T13:00:03.074Z,5000
2018-01-19T13:05:02.661Z,3000
2018-01-19T13:10:03.402Z,3000
2018-01-19T13:15:03.047Z,4000
2018-01-19T13:20:02.505Z,2000
2018-01-19T13:25:02.960Z,3000
2018-01-19T13:30:02.614Z,3000
2018-01-19T13:35:03.322Z,4000
2018-01-19T13:40:03.104Z,3000
2018-01-19T13:45:02.489Z,2000
2018-01-19T13:50:03.052Z,2000
2018-01-19T13:55:02.500Z,2000
2018-01-19T14:00:03.162Z,1000
2018-01-19T14:05:02.710Z,2000
2018-01-19T14:10:03.372Z,2000
2018-01-19T14:15:02.925Z,3000
2018-01-19T14:20:03.415Z,1000
2018-01-19T14:25:03.020Z,1000
2018-01-19T14:30:02.613Z,770
2018-01-19T14:35:03.340Z,733
2018-01-19T14:40:02.801Z,521
2018-01-19T14:45:02.500Z,724
2018-01-19T14:50:02.964Z,757
2018-01-19T14:55:03.400Z,652
2018-01-19T15:00:03.045Z,566
2018-01-19T15:05:02.579Z,632
2018-01-19T15:10:03.125Z,742
2018-01-19T15:15:02.647Z,549
2018-01-19T15:20:03.193Z,382
2018-01-19T15:25:02.779Z,310
2018-01-19T15:35:02.904Z,280
2018-01-19T15:40:02.607Z,272
2018-01-19T15:45:03.166Z,210
2018-01-19T15:50:02.808Z,129
2018-01-19T15:55:03.365Z,66
2018-01-19T16:00:03.062Z,64
2018-01-19T16:05:02.641Z,66
2018-01-19T16:10:03.274Z,56
2018-01-19T16:15:02.935Z,39
2018-01-19T16:20:03.431Z,25
2018-01-19T16:25:03.035Z,9
2018-01-19T16:30:02.567Z,5
2018-01-19T16:35:03.240Z,3
2018-01-19T16:40:02.953Z,1
2018-01-19T16:45:03.422Z,0
2018-01-19T16:50:02.971Z,0
2018-01-19T16:55:03.502Z,0
2018-01-19T17:00:03.248Z,0
2018-01-19T17:05:02.873Z,0
2018-01-19T17:10:02.548Z,0
2018-01-19T17:15:03.113Z,0
2018-01-19T17:20:02.732Z,0
2018-01-19T17:25:03.275Z,0
2018-01-19T17:30:02.727Z,0
2018-01-19T17:35:03.689Z,0
2018-01-19T17:40:03.302Z,0
2018-01-19T17:45:02.858Z,0
2018-01-19T17:50:02.487Z,0
2018-01-19T17:55:02.993Z,0
2018-01-19T18:00:02.518Z,0
2018-01-19T18:05:03.209Z,0
2018-01-19T18:10:02.797Z,0
2018-01-19T18:15:03.298Z,0
2018-01-19T18:20:02.945Z,0
2018-01-19T18:25:03.426Z,0
2018-01-19T18:30:02.956Z,0
2018-01-19T18:35:02.465Z,0
2018-01-19T18:40:02.931Z,0
2018-01-19T18:45:03.394Z,0
2018-01-19T18:50:02.847Z,0
2018-01-19T18:55:03.462Z,0
2018-01-19T19:00:02.893Z,0
2018-01-19T19:05:03.300Z,0
2018-01-19T19:10:03.125Z,0
2018-01-19T19:15:02.651Z,0
2018-01-19T19:20:03.276Z,0
2018-01-19T19:25:02.712Z,0
2018-01-19T19:30:03.316Z,0
2018-01-19T19:35:02.819Z,0
2018-01-19T19:40:02.575Z,0
2018-01-19T19:45:03.252Z,0
2018-01-19T19:50:02.874Z,0
2018-01-19T19:55:02.423Z,0
2018-01-19T20:00:03.022Z,0
2018-01-19T20:05:02.642Z,0
2018-01-19T20:10:03.340Z,0
2018-01-19T20:15:02.889Z,0
2018-01-19T20:20:02.622Z,0
2018-01-19T20:25:02.483Z,0
2018-01-19T20:30:03.152Z,0
2018-01-19T20:35:02.636Z,0
2018-01-19T20:40:03.347Z,0
2018-01-19T20:45:02.924Z,0
2018-01-19T20:50:02.494Z,0
2018-01-19T20:55:03.074Z,0
2018-01-19T21:00:02.628Z,0
2018-01-19T21:05:03.228Z,0
2018-01-19T21:10:02.702Z,0
2018-01-19T21:15:03.182Z,0
2018-01-19T21:20:02.776Z,0
2018-01-19T21:25:03.383Z,0
2018-01-19T21:30:02.815Z,0
2018-01-19T21:35:03.306Z,0
2018-01-19T21:40:02.816Z,0
2018-01-19T21:45:03.287Z,0
2018-01-19T21:50:02.777Z,0
2018-01-19T21:55:03.228Z,0
2018-01-19T22:00:02.819Z,0
2018-01-19T22:05:03.379Z,0
2018-01-19T22:10:02.988Z,0
2018-01-19T22:15:02.620Z,0
2018-01-19T22:20:03.100Z,0
2018-01-19T22:25:02.638Z,0
2018-01-19T22:30:03.537Z,0
2018-01-19T22:35:02.996Z,0
2018-01-19T22:40:02.453Z,0
2018-01-19T22:45:02.962Z,0
2018-01-19T22:50:03.423Z,0
2018-01-19T22:55:02.929Z,0
2018-01-19T23:00:02.542Z,0
2018-01-19T23:05:02.935Z,0
2018-01-19T23:10:03.393Z,0
2018-01-19T23:15:02.994Z,0
2018-01-19T23:20:02.531Z,0
2018-01-19T23:25:02.932Z,0
2018-01-19T23:30:02.561Z,0
2018-01-19T23:35:03.104Z,0
2018-01-19T23:40:02.622Z,0
2018-01-19T23:45:03.206Z,0
2018-01-19T23:50:02.784Z,0
2018-01-19T23:55:03.109Z,0
